Time;durP1;ratioP1;P1;durP2;ratioP2;P2;SDS_P1;SDS_P2;PMS_P1;PMS_P2;Temp;Humidity;BMP_temperature;BMP_pressure;BME280_temperature;BME280_humidity;BME280_pressure;Samples;Min_cycle;Max_cycle;Signal;HPM_P1;HPM_P2
2022/07/24 00:01:00;;;;;;;;;;;;;;;20.44;46.81;91182.50;5072005;28;20368;-63
2022/07/24 00:03:26;;;;;;;;;;;;;;;20.55;46.31;91179.97;5071568;28;19958;-63
2022/07/24 00:05:52;;;;;;;;;;;;;;;20.54;46.23;91179.19;5071610;28;20294;-63
2022/07/24 00:08:18;;;;;;;;;;;;;;;20.47;46.29;91168.28;5071713;28;19921;-63
2022/07/24 00:10:43;;;;;;;;;;;;;;;20.47;46.18;91173.69;5071923;28;20025;-63
2022/07/24 00:13:08;;;;;;;;;;;;;;;20.54;46.18;91183.84;5071685;28;20532;-63
2022/07/24 00:15:34;;;;;;;;;;;;;;;20.55;46.04;91177.28;5071823;28;20310;-63
2022/07/24 00:17:59;;;;;;;;;;;;;;;20.70;45.56;91176.34;5071579;28;19955;-62
2022/07/24 00:20:25;;;;;;;;;;;;;;;20.71;45.66;91185.25;5071672;28;19947;-63
2022/07/24 00:22:50;;;;;;;;;;;;;;;20.62;46.20;91182.78;5071560;28;20329;-62
2022/07/24 00:25:15;;;;;;;;;;;;;;;20.41;46.78;91187.84;5071626;28;19988;-62
2022/07/24 00:27:41;;;;;;;;;;;;;;;20.26;46.99;91176.03;5071697;28;19916;-62
2022/07/24 00:30:07;;;;;;;;;;;;;;;20.10;47.49;91178.84;5071650;28;19917;-62
2022/07/24 00:32:32;;;;;;;;;;;;;;;19.91;47.90;91176.97;5070914;28;20450;-62
2022/07/24 00:34:57;;;;;;;;;;;;;;;19.89;47.98;91178.50;5071517;28;20002;-63
2022/07/24 00:37:23;;;;;;;;;;;;;;;19.73;48.40;91173.19;5071529;28;19916;-62
2022/07/24 00:39:48;;;;;;;;;;;;;;;19.65;48.75;91177.66;5071354;28;19917;-62
2022/07/24 00:42:14;;;;;;;;;;;;;;;19.59;48.82;91178.31;5071296;28;19971;-62
2022/07/24 00:44:39;;;;;;;;;;;;;;;19.52;49.18;91178.16;5071527;28;19927;-62
2022/07/24 00:47:04;;;;;;;;;;;;;;;19.40;49.51;91185.25;5070863;28;19951;-62
2022/07/24 00:49:30;;;;;;;;;;;;;;;19.38;49.60;91175.94;5070669;28;19924;-61
2022/07/24 00:51:55;;;;;;;;;;;;;;;19.38;49.70;91178.66;5071326;28;19978;-62
2022/07/24 00:54:21;;;;;;;;;;;;;;;19.41;49.69;91172.56;5071243;28;19924;-62
2022/07/24 00:56:49;;;;;;;;;;;;;;;19.36;49.64;91170.91;5071200;28;19917;-62
2022/07/24 00:59:14;;;;;;;;;;;;;;;19.35;49.76;91172.06;5071342;28;19982;-64
2022/07/24 01:01:40;;;;;;;;;;;;;;;19.31;49.71;91171.22;5070611;28;20389;-62
2022/07/24 01:04:05;;;;;;;;;;;;;;;19.18;50.18;91167.09;5068989;28;20318;-63
2022/07/24 01:06:31;;;;;;;;;;;;;;;19.10;50.36;91171.56;5071094;28;20426;-62
2022/07/24 01:08:56;;;;;;;;;;;;;;;19.11;50.60;91175.06;5071190;28;19917;-62
2022/07/24 01:11:22;;;;;;;;;;;;;;;19.10;50.22;91171.56;5071121;28;19920;-62
2022/07/24 01:13:48;;;;;;;;;;;;;;;19.09;50.55;91163.81;5071217;28;20050;-61
2022/07/24 01:16:13;;;;;;;;;;;;;;;19.04;50.64;91174.88;5071244;28;19924;-62
2022/07/24 01:18:39;;;;;;;;;;;;;;;18.93;51.17;91165.78;5071110;28;19920;-62
2022/07/24 01:21:05;;;;;;;;;;;;;;;18.85;51.58;91173.75;5071105;28;19927;-63
2022/07/24 01:23:30;;;;;;;;;;;;;;;18.67;52.26;91175.28;5071045;28;20003;-63
2022/07/24 01:25:56;;;;;;;;;;;;;;;18.42;52.86;91169.28;5071053;28;20232;-62
2022/07/24 01:28:21;;;;;;;;;;;;;;;18.25;53.32;91162.34;5070887;28;20349;-62
2022/07/24 01:30:46;;;;;;;;;;;;;;;18.12;53.66;91168.97;5070931;28;19923;-62
2022/07/24 01:33:12;;;;;;;;;;;;;;;18.06;54.15;91167.66;5069516;28;20003;-62
2022/07/24 01:35:37;;;;;;;;;;;;;;;18.01;54.08;91165.25;5071338;28;19960;-62
2022/07/24 01:38:02;;;;;;;;;;;;;;;18.02;54.37;91172.19;5071178;28;20227;-62
2022/07/24 01:40:28;;;;;;;;;;;;;;;17.90;54.67;91164.19;5070929;28;20409;-62
2022/07/24 01:42:53;;;;;;;;;;;;;;;17.93;54.81;91169.66;5070739;28;19917;-63
2022/07/24 01:45:19;;;;;;;;;;;;;;;17.83;55.03;91164.00;5070888;28;19921;-62
2022/07/24 01:47:44;;;;;;;;;;;;;;;17.84;55.03;91165.59;5070790;28;19928;-63
2022/07/24 01:50:13;;;;;;;;;;;;;;;17.80;55.36;91162.00;5071131;28;19924;-63
2022/07/24 01:52:38;;;;;;;;;;;;;;;17.74;55.40;91158.03;5070559;28;19952;-62
2022/07/24 01:55:04;;;;;;;;;;;;;;;17.71;55.73;91156.03;5070765;28;19970;-63
2022/07/24 01:57:30;;;;;;;;;;;;;;;17.67;56.00;91148.63;5070757;28;19920;-62
2022/07/24 01:59:55;;;;;;;;;;;;;;;17.73;55.71;91151.84;5072021;28;20005;-63
2022/07/24 02:02:20;;;;;;;;;;;;;;;17.83;55.37;91142.47;5074243;28;19923;-63
2022/07/24 02:04:46;;;;;;;;;;;;;;;17.94;54.95;91143.53;5074017;28;19955;-63
2022/07/24 02:07:11;;;;;;;;;;;;;;;18.03;54.80;91149.53;5074181;28;20374;-63
2022/07/24 02:09:36;;;;;;;;;;;;;;;18.08;54.40;91146.56;5074231;28;19916;-63
2022/07/24 02:12:02;;;;;;;;;;;;;;;18.13;54.63;91148.97;5073902;28;19920;-62
2022/07/24 02:14:27;;;;;;;;;;;;;;;18.16;54.57;91145.59;5073873;28;19921;-63
2022/07/24 02:16:52;;;;;;;;;;;;;;;18.18;54.44;91137.19;5072836;28;19971;-62
2022/07/24 02:19:18;;;;;;;;;;;;;;;18.19;54.18;91142.22;5074208;28;19920;-63
2022/07/24 02:21:43;;;;;;;;;;;;;;;18.21;54.50;91148.03;5073945;28;19917;-63
2022/07/24 02:24:09;;;;;;;;;;;;;;;18.22;54.06;91144.19;5074108;28;19923;-63
2022/07/24 02:26:35;;;;;;;;;;;;;;;18.27;53.77;91140.44;5073896;28;20317;-65
2022/07/24 02:29:00;;;;;;;;;;;;;;;18.32;53.63;91142.91;5073969;28;20372;-65
2022/07/24 02:31:25;;;;;;;;;;;;;;;18.36;53.76;91145.66;5073868;28;20451;-65
2022/07/24 02:33:51;;;;;;;;;;;;;;;18.48;53.47;91135.56;5072369;28;19924;-65
2022/07/24 02:36:17;;;;;;;;;;;;;;;18.49;53.17;91149.81;5073484;28;20380;-64
2022/07/24 02:38:42;;;;;;;;;;;;;;;18.46;53.16;91140.53;5073784;28;19923;-65
2022/07/24 02:41:07;;;;;;;;;;;;;;;18.36;53.60;91142.97;5072290;28;20305;-63
2022/07/24 02:43:33;;;;;;;;;;;;;;;18.27;53.86;91143.16;5073594;28;19965;-63
2022/07/24 02:45:58;;;;;;;;;;;;;;;18.18;54.03;91142.56;5073527;28;19937;-64
2022/07/24 02:48:23;;;;;;;;;;;;;;;18.05;54.37;91138.41;5073483;28;20385;-63
2022/07/24 02:50:49;;;;;;;;;;;;;;;17.97;55.17;91140.13;5073720;28;20079;-63
2022/07/24 02:53:14;;;;;;;;;;;;;;;17.89;55.23;91139.19;5073426;28;20037;-63
2022/07/24 02:55:40;;;;;;;;;;;;;;;17.75;55.60;91135.38;5073454;28;19921;-63
2022/07/24 02:58:05;;;;;;;;;;;;;;;17.74;55.50;91134.59;5073504;28;19924;-63
2022/07/24 03:00:30;;;;;;;;;;;;;;;17.65;55.79;91132.03;5073395;28;20389;-63
2022/07/24 03:02:56;;;;;;;;;;;;;;;17.60;56.24;91136.88;5073130;28;19917;-62
2022/07/24 03:05:21;;;;;;;;;;;;;;;17.54;56.30;91136.38;5073088;28;20364;-63
2022/07/24 03:07:47;;;;;;;;;;;;;;;17.53;56.49;91137.50;5073149;28;19916;-63
2022/07/24 03:10:12;;;;;;;;;;;;;;;17.52;56.50;91127.88;5073192;28;20352;-63
2022/07/24 03:12:38;;;;;;;;;;;;;;;17.58;56.58;91126.47;5072525;28;20007;-63
2022/07/24 03:15:03;;;;;;;;;;;;;;;17.59;56.38;91128.03;5073097;28;19996;-63
2022/07/24 03:17:29;;;;;;;;;;;;;;;17.65;56.25;91126.63;5073049;28;19917;-63
2022/07/24 03:19:54;;;;;;;;;;;;;;;17.70;56.00;91122.19;5073054;28;20370;-63
2022/07/24 03:22:19;;;;;;;;;;;;;;;17.75;56.17;91120.00;5071600;28;19920;-63
2022/07/24 03:24:45;;;;;;;;;;;;;;;17.83;55.88;91126.31;5072891;28;19924;-63
2022/07/24 03:27:10;;;;;;;;;;;;;;;17.85;55.76;91121.41;5072670;28;19922;-63
2022/07/24 03:29:36;;;;;;;;;;;;;;;17.84;56.25;91119.84;5072860;28;20019;-63
2022/07/24 03:32:01;;;;;;;;;;;;;;;17.84;56.05;91122.53;5072652;28;19917;-63
2022/07/24 03:34:26;;;;;;;;;;;;;;;17.89;56.05;91119.56;5072773;28;20343;-62
2022/07/24 03:36:52;;;;;;;;;;;;;;;17.96;55.90;91117.03;5072689;28;20008;-63
2022/07/24 03:39:17;;;;;;;;;;;;;;;17.98;55.99;91122.06;5072609;28;19921;-63
2022/07/24 03:41:43;;;;;;;;;;;;;;;18.01;55.88;91127.56;5072462;28;19938;-62
2022/07/24 03:44:08;;;;;;;;;;;;;;;18.06;55.90;91124.59;5072443;28;19917;-63
2022/07/24 03:46:34;;;;;;;;;;;;;;;18.12;55.95;91123.19;5072337;28;20322;-63
2022/07/24 03:48:59;;;;;;;;;;;;;;;18.09;56.37;91137.34;5072468;28;19966;-63
2022/07/24 03:51:25;;;;;;;;;;;;;;;18.05;56.91;91128.41;5072477;28;19963;-63
2022/07/24 03:53:50;;;;;;;;;;;;;;;17.90;57.86;91126.50;5072272;28;19955;-63
2022/07/24 03:56:15;;;;;;;;;;;;;;;17.92;58.03;91127.72;5072359;28;19930;-63
2022/07/24 03:58:41;;;;;;;;;;;;;;;17.91;58.46;91128.06;5072181;28;19916;-63
2022/07/24 04:01:07;;;;;;;;;;;;;;;17.90;58.32;91121.91;5072209;28;19921;-63
2022/07/24 04:03:32;;;;;;;;;;;;;;;17.97;58.24;91137.44;5072144;28;19916;-63
2022/07/24 04:05:59;;;;;;;;;;;;;;;18.06;58.23;91132.66;5071901;28;19925;-63
2022/07/24 04:08:25;;;;;;;;;;;;;;;18.09;58.50;91133.88;5072117;28;19920;-64
2022/07/24 04:10:56;;;;;;;;;;;;;;;18.17;58.61;91128.31;5071992;28;19916;-63
2022/07/24 04:13:21;;;;;;;;;;;;;;;18.29;57.91;91132.81;5071849;28;20274;-63
2022/07/24 04:15:46;;;;;;;;;;;;;;;18.36;57.73;91126.81;5071899;28;19917;-63
2022/07/24 04:18:12;;;;;;;;;;;;;;;18.45;57.78;91124.69;5071845;28;19916;-63
2022/07/24 04:20:37;;;;;;;;;;;;;;;18.51;58.01;91134.06;5071829;28;19923;-62
2022/07/24 04:23:02;;;;;;;;;;;;;;;18.64;57.97;91129.38;5070665;28;19917;-64
2022/07/24 04:25:28;;;;;;;;;;;;;;;18.74;58.17;91137.69;5071654;28;20456;-64
2022/07/24 04:27:53;;;;;;;;;;;;;;;18.78;57.77;91127.00;5071511;28;19923;-63
2022/07/24 04:30:18;;;;;;;;;;;;;;;18.91;58.22;91128.41;5071534;28;19916;-63
2022/07/24 04:32:43;;;;;;;;;;;;;;;19.01;57.36;91129.75;5071657;28;19921;-63
2022/07/24 04:35:09;;;;;;;;;;;;;;;19.09;57.73;91126.06;5071560;28;19942;-63
2022/07/24 04:37:34;;;;;;;;;;;;;;;19.25;56.76;91123.28;5071515;28;19971;-63
2022/07/24 04:40:00;;;;;;;;;;;;;;;19.26;58.12;91131.03;5071465;28;19927;-63
2022/07/24 04:42:25;;;;;;;;;;;;;;;19.35;57.81;91128.88;5071486;28;19921;-63
2022/07/24 04:44:50;;;;;;;;;;;;;;;19.39;57.49;91135.13;5071453;28;19924;-63
2022/07/24 04:47:16;;;;;;;;;;;;;;;19.43;57.47;91135.22;5071351;28;19920;-63
2022/07/24 04:49:41;;;;;;;;;;;;;;;19.70;56.47;91130.69;5071466;28;19921;-63
2022/07/24 04:52:07;;;;;;;;;;;;;;;19.71;56.09;91124.16;5069919;28;20341;-63
2022/07/24 04:54:32;;;;;;;;;;;;;;;19.80;56.01;91138.22;5071460;28;19917;-63
2022/07/24 04:56:58;;;;;;;;;;;;;;;19.86;56.28;91128.66;5071381;28;19927;-63
2022/07/24 04:59:23;;;;;;;;;;;;;;;20.14;55.71;91128.34;5071648;28;19924;-63
2022/07/24 05:01:48;;;;;;;;;;;;;;;20.42;55.95;91129.97;5071355;28;19920;-62
2022/07/24 05:04:14;;;;;;;;;;;;;;;20.62;55.00;91132.19;5071317;28;20407;-63
2022/07/24 05:06:39;;;;;;;;;;;;;;;20.88;53.76;91131.41;5070997;28;19930;-63
2022/07/24 05:09:04;;;;;;;;;;;;;;;21.15;53.29;91132.16;5071638;28;19920;-63
2022/07/24 05:11:30;;;;;;;;;;;;;;;21.18;52.97;91128.69;5070748;28;19916;-64
2022/07/24 05:13:55;;;;;;;;;;;;;;;21.45;52.15;91131.34;5071288;28;19923;-64
2022/07/24 05:16:20;;;;;;;;;;;;;;;21.67;51.95;91127.72;5069818;28;19917;-64
2022/07/24 05:18:46;;;;;;;;;;;;;;;21.90;50.47;91121.34;5071206;28;19924;-64
2022/07/24 05:21:11;;;;;;;;;;;;;;;22.38;49.77;91120.25;5071089;28;19916;-64
2022/07/24 05:23:36;;;;;;;;;;;;;;;22.81;49.16;91120.53;5071068;28;19916;-64
2022/07/24 05:26:02;;;;;;;;;;;;;;;23.14;48.83;91119.56;5070837;28;19917;-64
2022/07/24 05:28:27;;;;;;;;;;;;;;;23.53;48.73;91114.31;5071140;28;19916;-64
2022/07/24 05:30:52;;;;;;;;;;;;;;;24.03;47.56;91116.38;5070963;28;19923;-65
2022/07/24 05:33:18;;;;;;;;;;;;;;;24.55;46.93;91122.25;5070913;28;20061;-65
2022/07/24 05:35:43;;;;;;;;;;;;;;;25.58;45.41;91122.03;5073773;28;19968;-64
2022/07/24 05:38:08;;;;;;;;;;;;;;;27.62;41.54;91116.53;5074923;28;19916;-64
2022/07/24 05:40:34;;;;;;;;;;;;;;;29.29;39.07;91116.78;5073605;28;19987;-63
2022/07/24 05:42:59;;;;;;;;;;;;;;;29.81;37.96;91119.69;5074732;28;19924;-64
2022/07/24 05:45:24;;;;;;;;;;;;;;;30.82;36.78;91110.09;5074671;28;20438;-65
2022/07/24 05:47:50;;;;;;;;;;;;;;;30.54;36.65;91117.00;5074448;28;19916;-65
2022/07/24 05:50:15;;;;;;;;;;;;;;;28.92;39.03;91107.66;5073055;28;19973;-64
2022/07/24 05:52:41;;;;;;;;;;;;;;;30.96;35.97;91109.72;5074376;28;19912;-64
2022/07/24 05:55:07;;;;;;;;;;;;;;;31.80;35.22;91116.19;5073285;28;19922;-63
2022/07/24 05:57:32;;;;;;;;;;;;;;;31.99;34.68;91107.00;5074772;28;20368;-65
2022/07/24 05:59:58;;;;;;;;;;;;;;;32.82;33.78;91106.09;5074511;28;20458;-64
2022/07/24 06:02:23;;;;;;;;;;;;;;;34.47;32.69;91115.78;5074185;28;19913;-64
2022/07/24 06:04:48;;;;;;;;;;;;;;;36.94;29.67;91115.97;5074176;28;19943;-64
2022/07/24 06:07:14;;;;;;;;;;;;;;;38.46;27.93;91112.25;5074208;28;19928;-63
2022/07/24 06:09:39;;;;;;;;;;;;;;;38.93;27.54;91119.63;5054319;28;20023;-63
2022/07/24 06:12:05;;;;;;;;;;;;;;;39.91;26.85;91118.47;5051875;28;19921;-63
2022/07/24 06:14:30;;;;;;;;;;;;;;;41.20;26.15;91110.16;5058486;28;20382;-63
2022/07/24 06:16:56;;;;;;;;;;;;;;;42.01;25.62;91116.47;5060223;28;20378;-63
2022/07/24 06:19:21;;;;;;;;;;;;;;;41.50;25.97;91119.00;5063025;28;19920;-64
2022/07/24 06:21:46;;;;;;;;;;;;;;;41.70;25.55;91115.31;5061328;28;19917;-63
2022/07/24 06:24:12;;;;;;;;;;;;;;;41.86;26.28;91114.63;5062406;28;19921;-64
2022/07/24 06:26:37;;;;;;;;;;;;;;;41.99;26.02;91119.00;5062856;28;19924;-66
2022/07/24 06:29:03;;;;;;;;;;;;;;;42.27;26.14;91116.31;5061513;28;19923;-65
2022/07/24 06:31:28;;;;;;;;;;;;;;;43.69;24.76;91125.06;5062689;28;19921;-65
2022/07/24 06:33:53;;;;;;;;;;;;;;;43.92;24.13;91121.72;5062383;28;19917;-65
2022/07/24 06:36:18;;;;;;;;;;;;;;;44.19;23.98;91122.91;5061542;28;19916;-67
2022/07/24 06:38:44;;;;;;;;;;;;;;;44.11;23.87;91124.72;5063047;28;20014;-65
2022/07/24 06:41:09;;;;;;;;;;;;;;;43.44;24.09;91113.66;5061355;28;20023;-67
2022/07/24 06:43:34;;;;;;;;;;;;;;;41.51;25.90;91117.75;5062312;28;19925;-63
2022/07/24 06:46:00;;;;;;;;;;;;;;;43.21;24.82;91112.13;5062459;28;19925;-63
2022/07/24 06:48:25;;;;;;;;;;;;;;;43.68;24.56;91115.13;5054440;28;19925;-65
2022/07/24 06:50:51;;;;;;;;;;;;;;;42.74;25.54;91109.81;5062029;28;19921;-64
2022/07/24 06:53:16;;;;;;;;;;;;;;;44.59;23.99;91114.31;5061639;28;19927;-67
2022/07/24 06:55:41;;;;;;;;;;;;;;;44.72;23.49;91120.09;5060797;28;20319;-67
2022/07/24 06:58:07;;;;;;;;;;;;;;;44.52;23.16;91118.44;5059755;28;19932;-65
2022/07/24 07:00:32;;;;;;;;;;;;;;;44.93;23.17;91120.47;5059617;28;20398;-67
2022/07/24 07:02:57;;;;;;;;;;;;;;;45.59;22.58;91121.19;5059526;28;20183;-66
2022/07/24 07:05:23;;;;;;;;;;;;;;;46.16;22.74;91113.72;5053025;28;20410;-66
2022/07/24 07:07:49;;;;;;;;;;;;;;;44.79;22.99;91120.28;5059148;28;19925;-66
2022/07/24 07:10:14;;;;;;;;;;;;;;;42.74;25.73;91107.00;5072968;28;20353;-65
2022/07/24 07:12:39;;;;;;;;;;;;;;;41.98;25.00;91107.06;5072394;28;19916;-66
2022/07/24 07:15:05;;;;;;;;;;;;;;;42.29;25.10;91108.94;5072707;28;20374;-67
2022/07/24 07:17:30;;;;;;;;;;;;;;;44.72;22.47;91114.47;5072487;28;19913;-67
2022/07/24 07:19:56;;;;;;;;;;;;;;;46.07;22.44;91119.72;5072715;28;20474;-67
2022/07/24 07:22:21;;;;;;;;;;;;;;;46.60;21.64;91112.41;5069760;28;19916;-65
2022/07/24 07:24:46;;;;;;;;;;;;;;;46.62;21.20;91117.50;5071369;28;19916;-67
2022/07/24 07:27:12;;;;;;;;;;;;;;;47.01;20.61;91114.13;5072142;28;19920;-66
2022/07/24 07:29:37;;;;;;;;;;;;;;;47.59;21.39;91107.84;5071015;28;19923;-67
2022/07/24 07:32:02;;;;;;;;;;;;;;;48.30;19.75;91107.81;5071906;28;19952;-66
2022/07/24 07:34:28;;;;;;;;;;;;;;;47.23;20.61;91108.19;5072537;28;20014;-67
2022/07/24 07:36:53;;;;;;;;;;;;;;;47.95;20.16;91111.78;5072484;28;19916;-66
2022/07/24 07:39:18;;;;;;;;;;;;;;;47.66;19.90;91105.16;5072449;28;20011;-66
2022/07/24 07:41:44;;;;;;;;;;;;;;;47.18;19.97;91108.25;5071922;28;19978;-66
2022/07/24 07:44:09;;;;;;;;;;;;;;;46.26;20.16;91103.63;5071697;28;20032;-66
2022/07/24 07:46:34;;;;;;;;;;;;;;;44.46;22.03;91107.19;5071095;28;19927;-66
2022/07/24 07:49:00;;;;;;;;;;;;;;;46.25;19.50;91102.13;5072053;28;19916;-67
2022/07/24 07:51:25;;;;;;;;;;;;;;;46.98;19.09;91107.50;5072145;28;19921;-67
2022/07/24 07:53:51;;;;;;;;;;;;;;;45.89;21.22;91105.06;5071818;28;20038;-66
2022/07/24 07:56:16;;;;;;;;;;;;;;;46.28;19.41;91106.69;5072192;28;20316;-67
2022/07/24 07:58:42;;;;;;;;;;;;;;;45.91;20.17;91102.47;5071383;28;19916;-65
2022/07/24 08:01:07;;;;;;;;;;;;;;;47.98;19.22;91104.31;5071944;28;19916;-64
2022/07/24 08:03:32;;;;;;;;;;;;;;;48.93;18.19;91107.25;5071810;28;19969;-64
2022/07/24 08:05:59;;;;;;;;;;;;;;;49.43;18.42;91100.41;5071147;28;19924;-69
2022/07/24 08:08:24;;;;;;;;;;;;;;;48.93;18.52;91104.41;5071491;28;19998;-69
2022/07/24 08:10:50;;;;;;;;;;;;;;;49.63;17.93;91104.53;5071745;28;20354;-71
2022/07/24 08:13:17;;;;;;;;;;;;;;;46.52;20.13;91103.03;5070940;28;20386;-67
2022/07/24 08:15:43;;;;;;;;;;;;;;;47.35;19.40;91103.13;5070674;28;20385;-66
2022/07/24 08:18:08;;;;;;;;;;;;;;;49.08;19.43;91098.91;5070641;28;20016;-70
2022/07/24 08:20:33;;;;;;;;;;;;;;;47.71;18.47;91098.63;5071443;28;19916;-69
2022/07/24 08:22:59;;;;;;;;;;;;;;;48.35;17.91;91099.75;5071319;28;19990;-70
2022/07/24 08:25:25;;;;;;;;;;;;;;;48.68;17.41;91099.06;5071442;28;20398;-65
2022/07/24 08:27:50;;;;;;;;;;;;;;;48.29;17.82;91100.63;5070795;28;19921;-64
2022/07/24 08:30:16;;;;;;;;;;;;;;;49.60;16.97;91092.25;5071490;28;20023;-65
2022/07/24 08:32:43;;;;;;;;;;;;;;;51.48;16.07;91099.97;5070805;28;19970;-66
2022/07/24 08:35:09;;;;;;;;;;;;;;;50.82;17.04;91089.44;5071210;28;20007;-66
2022/07/24 08:37:38;;;;;;;;;;;;;;;50.75;16.98;91095.81;5071141;28;19920;-66
2022/07/24 08:40:04;;;;;;;;;;;;;;;50.24;16.31;91091.59;5070822;28;19966;-66
2022/07/24 08:42:29;;;;;;;;;;;;;;;48.67;17.96;91096.78;5070960;28;19963;-64
2022/07/24 08:44:55;;;;;;;;;;;;;;;49.85;17.17;91091.88;5071298;28;19917;-65
2022/07/24 08:47:21;;;;;;;;;;;;;;;48.65;17.22;91088.84;5070756;28;19924;-65
2022/07/24 08:49:47;;;;;;;;;;;;;;;49.23;17.12;91090.59;5071284;28;19917;-65
2022/07/24 08:52:14;;;;;;;;;;;;;;;47.14;17.84;91081.16;5071180;28;19917;-66
2022/07/24 08:54:39;;;;;;;;;;;;;;;45.54;18.61;91085.50;5070523;28;20417;-67
2022/07/24 09:05:34;;;;;;;3.67;2.90;;;;;;;48.27;17.28;91082.72;5067940;28;20745;-71
2022/07/24 09:08:10;;;;;;;4.13;3.05;;;;;;;45.46;19.42;91081.75;5067847;28;20120;-68
2022/07/24 09:10:36;;;;;;;8.27;6.97;;;;;;;42.64;20.86;91080.56;5067627;28;20120;-67
2022/07/24 09:13:16;;;;;;;3.80;3.35;;;;;;;41.81;21.40;91076.22;5067713;28;20115;-68
2022/07/24 09:15:49;;;;;;;4.78;3.53;;;;;;;39.76;23.07;91071.19;5067389;28;20041;-66
2022/07/24 09:18:32;;;;;;;3.83;3.30;;;;;;;41.40;21.56;91083.38;5067596;28;20111;-67
2022/07/24 09:20:59;;;;;;;7.00;3.65;;;;;;;41.02;21.98;91073.47;5067065;28;20033;-66
2022/07/24 09:23:25;;;;;;;8.57;6.80;;;;;;;41.46;22.02;91079.34;5067355;28;20155;-66
2022/07/24 09:25:52;;;;;;;4.20;3.42;;;;;;;42.45;21.53;91077.47;5066009;28;20093;-67
2022/07/24 09:28:19;;;;;;;6.43;4.00;;;;;;;42.30;21.35;91085.31;5067185;28;20037;-66
2022/07/24 09:30:45;;;;;;;4.70;3.08;;;;;;;40.52;22.08;91077.38;5066837;28;20044;-67
2022/07/24 09:33:11;;;;;;;5.65;3.67;;;;;;;39.85;22.26;91082.22;5066967;28;20075;-68
2022/07/24 09:35:41;;;;;;;5.00;3.67;;;;;;;39.24;23.38;91082.16;5067153;28;20088;-67
2022/07/24 09:38:12;;;;;;;5.30;3.83;;;;;;;39.95;22.83;91091.97;5067125;28;20024;-67
2022/07/24 09:40:52;;;;;;;4.43;3.22;;;;;;;40.95;21.95;91083.06;5067218;28;20147;-68
2022/07/24 09:43:29;;;;;;;3.30;3.00;;;;;;;38.72;23.53;91095.03;5066440;28;20514;-67
2022/07/24 09:46:08;;;;;;;8.63;3.67;;;;;;;38.21;24.25;91091.38;5066681;28;20063;-67
2022/07/24 09:48:34;;;;;;;5.13;3.53;;;;;;;37.82;24.39;91087.84;5067255;28;20036;-67
2022/07/24 09:51:04;;;;;;;4.13;3.60;;;;;;;40.29;23.81;91081.19;5066983;28;20040;-67
2022/07/24 09:53:32;;;;;;;4.22;3.83;;;;;;;38.97;24.83;91088.06;5066602;28;20037;-66
2022/07/24 09:56:00;;;;;;;5.72;3.85;;;;;;;37.59;25.79;91081.06;5066908;28;20041;-67
2022/07/24 09:58:26;;;;;;;5.32;4.15;;;;;;;39.58;25.08;91074.28;5066696;28;20071;-67
2022/07/24 10:00:56;;;;;;;4.65;3.88;;;;;;;38.05;26.21;91080.69;5066415;28;20075;-66
2022/07/24 10:03:26;;;;;;;5.63;4.15;;;;;;;38.90;25.10;91086.47;5065971;28;20056;-65
2022/07/24 10:05:59;;;;;;;3.92;3.53;;;;;;;40.29;24.85;91078.41;5066734;28;20036;-66
2022/07/24 10:08:25;;;;;;;5.22;4.05;;;;;;;41.49;23.60;91067.16;5066531;28;20041;-66
2022/07/24 10:10:51;;;;;;;4.75;3.97;;;;;;;42.88;22.70;91085.66;5066531;28;20036;-65
2022/07/24 10:13:17;;;;;;;7.07;3.92;;;;;;;44.95;21.35;91075.78;5066198;28;20041;-65
2022/07/24 10:15:57;;;;;;;4.78;4.00;;;;;;;46.95;19.27;91083.25;5059254;28;20041;-65
2022/07/24 10:18:34;;;;;;;4.70;3.38;;;;;;;45.65;20.98;91079.78;5052919;28;20575;-66
2022/07/24 10:21:08;;;;;;;4.30;3.83;;;;;;;42.73;22.38;91062.75;5052760;28;20094;-66
2022/07/24 10:23:58;;;;;;;4.20;3.80;;;;;;;40.37;23.53;91071.13;5052605;28;20079;-66
2022/07/24 10:26:34;;;;;;;4.75;4.15;;;;;;;38.56;25.35;91088.69;5053057;28;20037;-65
2022/07/24 10:29:06;;;;;;;5.97;4.32;;;;;;;37.03;26.59;91065.97;5053117;28;20037;-66
2022/07/24 10:31:32;;;;;;;5.60;4.00;;;;;;;36.57;27.34;91068.94;5052420;28;20051;-66
2022/07/24 10:34:03;;;;;;;4.90;4.10;;;;;;;36.27;28.30;91076.22;5052513;28;20033;-65
2022/07/24 10:36:34;;;;;;;6.60;4.32;;;;;;;35.62;28.48;91074.00;5052789;28;20043;-65
2022/07/24 10:39:09;;;;;;;15.23;8.07;;;;;;;34.88;29.66;91069.59;5052838;28;20048;-64
2022/07/24 10:41:34;;;;;;;7.95;4.18;;;;;;;34.45;30.19;91085.06;5052722;28;20037;-64
2022/07/24 10:44:18;;;;;;;8.07;5.60;;;;;;;34.40;30.15;91074.59;5052167;28;20033;-65
2022/07/24 10:47:01;;;;;;;6.47;5.05;;;;;;;34.58;29.53;91073.91;5052552;28;20040;-64
2022/07/24 10:49:38;;;;;;;;;;;;;;;34.63;29.58;91079.59;5053133;28;20039;-65
2022/07/24 10:52:03;;;;;;;5.45;4.13;;;;;;;35.31;27.26;91074.88;5052553;28;19971;-64
2022/07/24 10:54:29;;;;;;;4.70;3.97;;;;;;;35.74;28.00;91075.06;5052154;28;20033;-65
2022/07/24 10:56:54;;;;;;;4.60;4.20;;;;;;;35.20;26.91;91077.34;5052515;28;20119;-65
2022/07/24 10:59:37;;;;;;;11.70;9.68;;;;;;;35.21;26.51;91062.28;5051756;28;20045;-64
2022/07/24 11:02:26;;;;;;;12.88;11.43;;;;;;;35.42;27.84;91061.38;5052831;28;20567;-65
2022/07/24 11:05:38;;;;;;;4.80;3.95;;;;;;;37.19;26.28;91064.78;5052186;28;20077;-65
2022/07/24 11:08:12;;;;;;;4.85;4.32;;;;;;;38.95;24.91;91069.84;5013622;28;20037;-65
2022/07/24 11:10:49;;;;;;;4.22;3.80;;;;;;;41.36;21.84;91063.31;5050866;28;20045;-64
2022/07/24 11:13:33;;;;;;;4.13;3.45;;;;;;;42.87;21.44;91061.72;5052252;28;20057;-65
2022/07/24 11:16:11;;;;;;;8.77;7.70;;;;;;;40.79;22.89;91066.94;5051750;28;20060;-65
2022/07/24 11:18:40;;;;;;;4.20;3.80;;;;;;;40.49;22.36;91064.41;5052276;28;20041;-65
2022/07/24 11:21:07;;;;;;;5.28;4.57;;;;;;;40.55;22.47;91064.44;5051935;28;20053;-63
2022/07/24 11:23:33;;;;;;;4.43;3.72;;;;;;;41.11;21.12;91057.28;5052406;28;20029;-64
2022/07/24 11:26:31;;;;;;;4.20;3.80;;;;;;;41.75;21.60;91055.91;5052073;28;20047;-63
2022/07/24 11:29:35;;;;;;;4.45;3.90;;;;;;;42.93;20.99;91056.19;5039058;28;20558;-64
2022/07/24 11:32:07;;;;;;;3.28;2.97;;;;;;;43.61;19.92;91061.16;5029844;28;20037;-65
2022/07/24 11:34:34;;;;;;;3.90;3.50;;;;;;;42.54;21.24;91050.53;5048681;28;20064;-64
2022/07/24 11:37:00;;;;;;;5.97;3.92;;;;;;;40.76;21.68;91051.97;5051905;28;20032;-64
2022/07/24 11:39:34;;;;;;;3.90;3.60;;;;;;;38.94;23.96;91048.84;5052556;28;20052;-66
2022/07/24 11:42:02;;;;;;;4.80;3.80;;;;;;;38.41;24.42;91042.69;5051669;28;20045;-64
2022/07/24 11:44:30;;;;;;;4.38;3.97;;;;;;;38.28;24.92;91043.75;5051106;28;20029;-64
2022/07/24 11:46:57;;;;;;;6.80;3.65;;;;;;;38.04;24.87;91038.25;5051665;28;20072;-62
2022/07/24 11:49:24;;;;;;;3.83;3.47;;;;;;;39.28;24.14;91035.41;5051665;28;20502;-62
2022/07/24 11:51:52;;;;;;;6.30;4.00;;;;;;;42.54;21.62;91036.56;5051520;28;20040;-61
2022/07/24 11:54:27;;;;;;;5.60;3.72;;;;;;;42.65;21.04;91039.34;5051570;28;20564;-61
2022/07/24 11:56:54;;;;;;;7.90;6.50;;;;;;;42.46;20.33;91034.25;5051524;28;20036;-61
2022/07/24 11:59:24;;;;;;;8.85;4.03;;;;;;;41.73;21.72;91030.50;5051130;28;20036;-62
2022/07/24 12:01:50;;;;;;;4.20;3.80;;;;;;;40.92;22.13;91029.03;5049435;28;20049;-65
2022/07/24 12:04:22;;;;;;;4.18;3.65;;;;;;;40.47;22.30;91021.56;5051124;28;20119;-63
2022/07/24 12:06:48;;;;;;;;;;;;;;;41.84;21.72;91027.75;5051397;28;20028;-63
2022/07/24 12:09:13;;;;;;;4.53;4.03;;;;;;;42.66;21.01;91026.91;5050970;28;19913;-63
2022/07/24 12:11:39;;;;;;;4.30;3.90;;;;;;;42.50;21.11;91010.88;5051174;28;20040;-63
2022/07/24 12:14:13;;;;;;;5.05;3.88;;;;;;;42.90;20.17;91018.75;5050763;28;20051;-63
2022/07/24 12:16:38;;;;;;;4.20;3.75;;;;;;;43.89;21.66;91012.66;5050973;28;20494;-63
2022/07/24 12:19:20;;;;;;;3.55;3.25;;;;;;;43.11;20.63;91013.63;5050611;28;20047;-63
2022/07/24 12:21:47;;;;;;;;;;;;;;;43.65;20.62;91013.22;5051202;28;20461;-63
2022/07/24 12:24:13;;;;;;;3.95;3.60;;;;;;;43.17;20.71;91011.59;5050898;28;20000;-63
2022/07/24 12:26:56;;;;;;;4.45;3.90;;;;;;;41.68;22.04;91013.72;5051208;28;20032;-63
2022/07/24 12:29:23;;;;;;;6.05;4.57;;;;;;;39.90;23.34;91003.50;5050549;28;20476;-63
2022/07/24 12:31:49;;;;;;;5.25;3.60;;;;;;;38.30;23.22;91016.22;5050823;28;20124;-63
2022/07/24 12:34:15;;;;;;;3.88;3.58;;;;;;;37.39;24.61;91009.47;5051168;28;20053;-62